Time;durP1;ratioP1;P1;durP2;ratioP2;P2;SDS_P1;SDS_P2;PMS_P1;PMS_P2;Temp;Humidity;BMP_temperature;BMP_pressure;BME280_temperature;BME280_humidity;BME280_pressure;Samples;Min_cycle;Max_cycle;Signal;HPM_P1;HPM_P2
2023/04/21 00:01:38;;;;;;;17.67;15.18;;;;;;;;;;5068126;27;98454;-76
2023/04/21 00:04:05;;;;;;;20.27;15.93;;;;;;;;;;5070736;27;100017;-77
2023/04/21 00:06:33;;;;;;;20.08;14.63;;;;;;;;;;5072759;27;99072;-78
2023/04/21 00:08:59;;;;;;;22.33;15.50;;;;;;;;;;5069820;27;99667;-78
2023/04/21 00:11:25;;;;;;;22.17;15.88;;;;;;;;;;5069350;27;99280;-78
2023/04/21 00:13:52;;;;;;;21.30;15.98;;;;;;;;;;5069962;27;98198;-78
2023/04/21 00:16:18;;;;;;;24.15;17.42;;;;;;;;;;5069259;27;99691;-78
2023/04/21 00:18:45;;;;;;;23.98;18.65;;;;;;;;;;5069404;27;98965;-78
2023/04/21 00:21:12;;;;;;;23.40;19.48;;;;;;;;;;5069635;27;98325;-78
2023/04/21 00:23:38;;;;;;;23.00;18.40;;;;;;;;;;5068456;27;98612;-78
2023/04/21 00:26:04;;;;;;;34.80;20.52;;;;;;;;;;5069512;27;99123;-79
2023/04/21 00:28:31;;;;;;;28.38;20.17;;;;;;;;;;5073166;27;98411;-79
2023/04/21 00:30:57;;;;;;;27.63;19.60;;;;;;;;;;5067640;27;101325;-79
2023/04/21 00:33:24;;;;;;;23.08;15.30;;;;;;;;;;5069575;27;98224;-79
2023/04/21 00:35:53;;;;;;;28.75;21.38;;;;;;;;;;5069569;27;99936;-79
2023/04/21 00:38:19;;;;;;;33.53;23.05;;;;;;;;;;5068878;27;98933;-80
2023/04/21 00:40:46;;;;;;;30.15;21.08;;;;;;;;;;5068787;27;98278;-82
2023/04/21 00:43:12;;;;;;;31.55;22.70;;;;;;;;;;5070411;27;100012;-82
2023/04/21 00:45:38;;;;;;;37.35;23.95;;;;;;;;;;5067296;27;101984;-82
2023/04/21 00:48:05;;;;;;;30.60;20.42;;;;;;;;;;5072169;27;99009;-81
2023/04/21 00:50:32;;;;;;;39.35;24.77;;;;;;;;;;5068237;27;99940;-82
2023/04/21 00:52:58;;;;;;;36.25;26.15;;;;;;;;;;5071153;27;100050;-82
2023/04/21 00:55:25;;;;;;;45.15;26.02;;;;;;;;;;5071038;27;98955;-81
2023/04/21 00:57:52;;;;;;;34.88;25.35;;;;;;;;;;5072049;27;99842;-81
2023/04/21 01:00:19;;;;;;;29.70;19.77;;;;;;;;;;5069398;27;98377;-81
2023/04/21 01:02:45;;;;;;;38.47;25.17;;;;;;;;;;5070793;27;99472;-82
2023/04/21 01:05:15;;;;;;;45.00;26.83;;;;;;;;;;5061450;27;99845;-82
2023/04/21 01:07:41;;;;;;;40.97;25.25;;;;;;;;;;5069159;27;98218;-81
2023/04/21 01:10:08;;;;;;;45.78;27.95;;;;;;;;;;5071284;27;101333;-82
2023/04/21 01:12:41;;;;;;;42.20;27.48;;;;;;;;;;5068535;27;99601;-82
2023/04/21 01:15:08;;;;;;;53.10;28.63;;;;;;;;;;5068467;27;98296;-81
2023/04/21 01:17:37;;;;;;;61.88;32.80;;;;;;;;;;5067753;27;101986;-81
2023/04/21 01:20:09;;;;;;;58.10;30.40;;;;;;;;;;5067437;27;98260;-81
2023/04/21 01:22:36;;;;;;;56.05;29.38;;;;;;;;;;5067944;27;100820;-81
2023/04/21 01:25:03;;;;;;;51.90;29.48;;;;;;;;;;5069299;27;98774;-81
2023/04/21 01:27:29;;;;;;;56.83;29.23;;;;;;;;;;5068882;27;98388;-81
2023/04/21 01:29:56;;;;;;;65.55;33.53;;;;;;;;;;5068178;27;100975;-81
2023/04/21 01:32:26;;;;;;;61.10;30.83;;;;;;;;;;5072259;27;98806;-81
2023/04/21 01:34:53;;;;;;;62.17;32.72;;;;;;;;;;5066966;27;98642;-80
2023/04/21 01:37:22;;;;;;;64.80;33.30;;;;;;;;;;5068955;27;98849;-81
2023/04/21 01:39:51;;;;;;;62.92;33.22;;;;;;;;;;5067589;27;98533;-80
2023/04/21 01:42:18;;;;;;;68.32;34.97;;;;;;;;;;5067563;27;100966;-81
2023/04/21 01:44:45;;;;;;;71.20;35.17;;;;;;;;;;5067589;27;102012;-80
2023/04/21 01:47:13;;;;;;;91.68;37.88;;;;;;;;;;5066833;27;100191;-80
2023/04/21 01:49:40;;;;;;;67.28;34.03;;;;;;;;;;5069367;27;100066;-80
2023/04/21 01:52:06;;;;;;;78.63;35.92;;;;;;;;;;5067090;27;100272;-81
2023/04/21 01:54:33;;;;;;;70.40;34.28;;;;;;;;;;5072016;27;98435;-80
2023/04/21 01:57:01;;;;;;;79.07;34.42;;;;;;;;;;5071592;27;99728;-80
2023/04/21 01:59:27;;;;;;;72.43;35.10;;;;;;;;;;5064565;27;99341;-79
2023/04/21 02:01:54;;;;;;;73.70;33.92;;;;;;;;;;5075020;27;98333;-80
2023/04/21 02:04:21;;;;;;;72.55;34.95;;;;;;;;;;5072158;27;99368;-80
2023/04/21 02:06:47;;;;;;;70.78;31.58;;;;;;;;;;5074201;27;98219;-79
2023/04/21 02:09:14;;;;;;;82.35;36.38;;;;;;;;;;5080455;27;99574;-78
2023/04/21 02:11:41;;;;;;;137.55;43.50;;;;;;;;;;5080239;27;98527;-76
2023/04/21 02:14:07;;;;;;;102.50;40.65;;;;;;;;;;5080957;27;98229;-78
2023/04/21 02:16:33;;;;;;;92.28;38.10;;;;;;;;;;5073612;27;100934;-78
2023/04/21 02:19:00;;;;;;;77.22;34.65;;;;;;;;;;5073320;27;98873;-79
2023/04/21 02:21:27;;;;;;;74.93;33.42;;;;;;;;;;5083955;27;101503;-78
2023/04/21 02:23:54;;;;;;;73.53;33.33;;;;;;;;;;5069070;27;100537;-78
2023/04/21 02:26:20;;;;;;;89.97;37.70;;;;;;;;;;5072107;27;99227;-78
2023/04/21 02:28:47;;;;;;;92.13;39.53;;;;;;;;;;5072781;27;98646;-78
2023/04/21 02:31:14;;;;;;;70.72;35.45;;;;;;;;;;5071038;27;101560;-78
2023/04/21 02:33:41;;;;;;;109.85;41.20;;;;;;;;;;5072429;27;98253;-78
2023/04/21 02:36:09;;;;;;;94.25;40.55;;;;;;;;;;5070818;27;100706;-77
2023/04/21 02:38:36;;;;;;;86.40;38.42;;;;;;;;;;5074805;27;100051;-77
2023/04/21 02:41:02;;;;;;;88.22;40.42;;;;;;;;;;5072332;27;98292;-77
2023/04/21 02:43:29;;;;;;;105.60;43.47;;;;;;;;;;5068966;27;100069;-77
2023/04/21 02:45:55;;;;;;;98.57;40.88;;;;;;;;;;5071957;27;98196;-77
2023/04/21 02:48:22;;;;;;;84.40;37.60;;;;;;;;;;5071625;27;98656;-77
2023/04/21 02:50:49;;;;;;;97.43;40.97;;;;;;;;;;5069283;27;100737;-77
2023/04/21 02:53:16;;;;;;;95.72;39.53;;;;;;;;;;5069850;27;99705;-76
2023/04/21 02:55:42;;;;;;;102.15;40.80;;;;;;;;;;5072171;27;98189;-76
2023/04/21 02:58:09;;;;;;;120.35;43.17;;;;;;;;;;5073601;27;99107;-76
2023/04/21 03:00:36;;;;;;;91.18;38.25;;;;;;;;;;5070735;27;98236;-76
2023/04/21 03:03:03;;;;;;;114.25;43.60;;;;;;;;;;5070990;27;98742;-76
2023/04/21 03:05:29;;;;;;;114.80;44.40;;;;;;;;;;5068925;27;98446;-76
2023/04/21 03:07:56;;;;;;;94.15;41.40;;;;;;;;;;5071871;27;98464;-76
2023/04/21 03:10:22;;;;;;;91.60;40.15;;;;;;;;;;5070473;27;98713;-76
2023/04/21 03:12:48;;;;;;;107.72;41.70;;;;;;;;;;5070987;27;98178;-76
2023/04/21 03:15:15;;;;;;;100.45;40.65;;;;;;;;;;5062138;27;99162;-76
2023/04/21 03:17:42;;;;;;;98.60;40.70;;;;;;;;;;5070322;27;98923;-75
2023/04/21 03:20:10;;;;;;;90.85;41.03;;;;;;;;;;5072399;27;98284;-75
2023/04/21 03:22:39;;;;;;;106.57;40.58;;;;;;;;;;5070471;27;98992;-75
2023/04/21 03:25:06;;;;;;;94.00;40.38;;;;;;;;;;5069968;27;98320;-75
2023/04/21 03:27:33;;;;;;;77.47;34.63;;;;;;;;;;5070105;27;98733;-75
2023/04/21 03:29:59;;;;;;;119.90;42.22;;;;;;;;;;5071104;27;98785;-75
2023/04/21 03:32:26;;;;;;;95.57;38.75;;;;;;;;;;5070103;27;98002;-75
2023/04/21 03:34:52;;;;;;;93.38;39.80;;;;;;;;;;5069293;27;99905;-74
2023/04/21 03:37:19;;;;;;;115.32;42.67;;;;;;;;;;5069086;27;101970;-75
2023/04/21 03:39:47;;;;;;;102.03;40.70;;;;;;;;;;5061532;27;98664;-75
2023/04/21 03:42:14;;;;;;;75.65;35.85;;;;;;;;;;5072418;27;100779;-75
2023/04/21 03:44:41;;;;;;;102.97;42.80;;;;;;;;;;5070843;27;99281;-75
2023/04/21 03:47:07;;;;;;;115.43;43.85;;;;;;;;;;5070270;27;98234;-75
2023/04/21 03:49:34;;;;;;;98.82;39.42;;;;;;;;;;5068655;27;99893;-75
2023/04/21 03:52:01;;;;;;;133.18;44.83;;;;;;;;;;5070804;27;98378;-75
2023/04/21 03:54:27;;;;;;;103.07;40.30;;;;;;;;;;5068992;27;99087;-75
2023/04/21 03:56:53;;;;;;;97.80;40.50;;;;;;;;;;5070037;27;100041;-75
2023/04/21 03:59:20;;;;;;;104.32;41.05;;;;;;;;;;5070884;27;99212;-75
2023/04/21 04:01:47;;;;;;;96.82;42.00;;;;;;;;;;5069453;27;99528;-74
2023/04/21 04:04:13;;;;;;;117.05;44.03;;;;;;;;;;5073720;27;99950;-74
2023/04/21 04:06:40;;;;;;;94.85;41.53;;;;;;;;;;5070804;27;100432;-75
2023/04/21 04:09:07;;;;;;;97.70;40.67;;;;;;;;;;5068852;27;99229;-75
2023/04/21 04:11:34;;;;;;;99.50;41.70;;;;;;;;;;5069609;27;98323;-75
2023/04/21 04:14:00;;;;;;;109.57;42.10;;;;;;;;;;5070510;27;99399;-75
2023/04/21 04:16:27;;;;;;;91.13;38.42;;;;;;;;;;5069087;27;99304;-74
2023/04/21 04:18:54;;;;;;;80.32;37.67;;;;;;;;;;5069606;27;98357;-75
2023/04/21 04:21:21;;;;;;;109.95;43.83;;;;;;;;;;5069643;27;99339;-74
2023/04/21 04:23:48;;;;;;;106.38;43.22;;;;;;;;;;5068511;27;100068;-74
2023/04/21 04:26:15;;;;;;;101.65;42.03;;;;;;;;;;5073703;27;99370;-75
2023/04/21 04:28:41;;;;;;;107.35;44.08;;;;;;;;;;5068200;27;98972;-74
2023/04/21 04:31:08;;;;;;;81.60;38.10;;;;;;;;;;5069526;27;98299;-75
2023/04/21 04:33:35;;;;;;;92.90;40.22;;;;;;;;;;5069849;27;99546;-75
2023/04/21 04:36:01;;;;;;;84.82;39.22;;;;;;;;;;5068624;27;100092;-75
2023/04/21 04:38:29;;;;;;;90.03;39.58;;;;;;;;;;5069354;27;98240;-75
2023/04/21 04:40:57;;;;;;;88.35;39.58;;;;;;;;;;5069738;27;99531;-75
2023/04/21 04:43:27;;;;;;;98.15;41.20;;;;;;;;;;5068369;27;99814;-75
2023/04/21 04:45:53;;;;;;;107.28;45.45;;;;;;;;;;5069748;27;98367;-75
2023/04/21 04:48:19;;;;;;;93.28;42.75;;;;;;;;;;5064657;27;98822;-75
2023/04/21 04:50:46;;;;;;;76.65;36.85;;;;;;;;;;5068766;27;98495;-75
2023/04/21 04:53:12;;;;;;;79.20;37.92;;;;;;;;;;5069417;27;99656;-75
2023/04/21 04:55:38;;;;;;;81.38;41.70;;;;;;;;;;5069278;27;99932;-75
2023/04/21 04:58:05;;;;;;;47.58;27.85;;;;;;;;;;5069152;27;99330;-75
2023/04/21 05:00:32;;;;;;;77.43;39.30;;;;;;;;;;5068324;27;98819;-75
2023/04/21 05:02:58;;;;;;;82.95;41.30;;;;;;;;;;5069482;27;100446;-75
2023/04/21 05:05:25;;;;;;;66.57;38.42;;;;;;;;;;5068404;27;98425;-75
2023/04/21 05:07:51;;;;;;;74.60;38.50;;;;;;;;;;5072744;27;98577;-74
2023/04/21 05:10:17;;;;;;;67.80;35.50;;;;;;;;;;5069400;27;98163;-75
2023/04/21 05:12:44;;;;;;;84.32;43.65;;;;;;;;;;5068287;27;98810;-74
2023/04/21 05:15:10;;;;;;;61.38;34.40;;;;;;;;;;5065668;27;100046;-75
2023/04/21 05:17:37;;;;;;;73.70;41.75;;;;;;;;;;5067850;27;98251;-75
2023/04/21 05:20:04;;;;;;;62.58;35.60;;;;;;;;;;5068038;27;99593;-75
2023/04/21 05:22:30;;;;;;;67.63;36.17;;;;;;;;;;5067318;27;99080;-74
2023/04/21 05:24:57;;;;;;;67.90;39.45;;;;;;;;;;5068491;27;98237;-75
2023/04/21 05:27:23;;;;;;;67.07;39.75;;;;;;;;;;5069134;27;99615;-75
2023/04/21 05:29:50;;;;;;;64.95;38.20;;;;;;;;;;5070826;27;99073;-75
2023/04/21 05:32:16;;;;;;;64.40;38.83;;;;;;;;;;5068586;27;99333;-76
2023/04/21 05:34:42;;;;;;;61.00;36.67;;;;;;;;;;5070740;27;99046;-74
2023/04/21 05:37:10;;;;;;;67.28;41.30;;;;;;;;;;5072048;27;98269;-75
2023/04/21 05:39:36;;;;;;;66.25;39.53;;;;;;;;;;5071210;27;98527;-74
2023/04/21 05:42:02;;;;;;;66.25;41.80;;;;;;;;;;5071845;27;99191;-73
2023/04/21 05:44:29;;;;;;;58.92;37.33;;;;;;;;;;5071862;27;98209;-76
2023/04/21 05:46:55;;;;;;;62.33;38.88;;;;;;;;;;5063485;27;98513;-73
2023/04/21 05:49:22;;;;;;;60.72;36.00;;;;;;;;;;5071508;27;98897;-73
2023/04/21 05:51:48;;;;;;;67.13;40.00;;;;;;;;;;5075232;27;98222;-73
2023/04/21 05:54:15;;;;;;;68.85;42.38;;;;;;;;;;5064767;27;99977;-73
2023/04/21 05:56:41;;;;;;;61.65;37.97;;;;;;;;;;5072126;27;99070;-73
2023/04/21 05:59:08;;;;;;;62.55;40.10;;;;;;;;;;5071399;27;99383;-74
2023/04/21 06:01:34;;;;;;;65.55;39.85;;;;;;;;;;5064335;27;99693;-73
2023/04/21 06:04:01;;;;;;;63.03;39.25;;;;;;;;;;5061955;27;100088;-73
2023/04/21 06:06:27;;;;;;;54.60;36.10;;;;;;;;;;5070197;27;98490;-73
2023/04/21 06:08:54;;;;;;;55.40;36.13;;;;;;;;;;5068214;27;99060;-74
2023/04/21 06:11:21;;;;;;;60.80;37.33;;;;;;;;;;5061039;27;98747;-73
2023/04/21 06:13:47;;;;;;;61.17;38.10;;;;;;;;;;5072738;27;98500;-74
2023/04/21 06:16:13;;;;;;;61.30;40.55;;;;;;;;;;5068791;27;98286;-73
2023/04/21 06:18:40;;;;;;;60.55;38.45;;;;;;;;;;5057827;27;99317;-73
2023/04/21 06:21:06;;;;;;;63.67;39.88;;;;;;;;;;5054707;27;100345;-73
2023/04/21 06:23:33;;;;;;;62.80;38.47;;;;;;;;;;5066803;27;98770;-74
2023/04/21 06:26:00;;;;;;;58.45;38.30;;;;;;;;;;5066320;27;99543;-74
2023/04/21 06:28:26;;;;;;;53.10;38.05;;;;;;;;;;5068584;27;99777;-75
2023/04/21 06:30:53;;;;;;;69.93;41.15;;;;;;;;;;5070737;27;98456;-74
2023/04/21 06:33:19;;;;;;;52.35;35.65;;;;;;;;;;5063998;27;100058;-74
2023/04/21 06:35:46;;;;;;;61.42;38.42;;;;;;;;;;5072277;27;99013;-74
2023/04/21 06:38:12;;;;;;;51.45;36.85;;;;;;;;;;5068858;27;99485;-74
2023/04/21 06:40:38;;;;;;;57.67;37.05;;;;;;;;;;5065229;27;100003;-74
2023/04/21 06:43:05;;;;;;;63.58;37.75;;;;;;;;;;5059155;27;98639;-73
2023/04/21 06:45:32;;;;;;;41.97;29.25;;;;;;;;;;5060022;27;99049;-75
2023/04/21 06:47:58;;;;;;;52.75;35.70;;;;;;;;;;5069882;27;99364;-74
2023/04/21 06:50:24;;;;;;;56.55;37.88;;;;;;;;;;5069380;27;98903;-75
2023/04/21 06:52:51;;;;;;;52.15;36.72;;;;;;;;;;5070323;27;99532;-75
2023/04/21 06:55:17;;;;;;;46.00;35.70;;;;;;;;;;5069738;27;99963;-74
2023/04/21 06:57:43;;;;;;;40.75;30.95;;;;;;;;;;5071829;27;98036;-74
2023/04/21 07:00:10;;;;;;;50.40;36.53;;;;;;;;;;5069282;27;99276;-74
2023/04/21 07:02:36;;;;;;;47.80;35.00;;;;;;;;;;5069085;27;98253;-75
2023/04/21 07:05:03;;;;;;;41.60;30.75;;;;;;;;;;5069558;27;98552;-75
2023/04/21 07:07:30;;;;;;;47.80;33.70;;;;;;;;;;5068955;27;99481;-75
2023/04/21 07:09:56;;;;;;;55.30;35.13;;;;;;;;;;5070312;27;98369;-75
2023/04/21 07:12:22;;;;;;;49.25;35.13;;;;;;;;;;5061601;27;99527;-75
2023/04/21 07:14:49;;;;;;;40.35;31.23;;;;;;;;;;5067939;27;99452;-74
2023/04/21 07:17:15;;;;;;;46.42;33.35;;;;;;;;;;5072983;27;99599;-74
2023/04/21 07:19:42;;;;;;;40.10;30.92;;;;;;;;;;5068816;27;100003;-74
2023/04/21 07:22:08;;;;;;;37.05;31.23;;;;;;;;;;5068726;27;98283;-74
2023/04/21 07:24:36;;;;;;;44.17;32.20;;;;;;;;;;5070320;27;99840;-74
2023/04/21 07:27:02;;;;;;;40.22;29.63;;;;;;;;;;5068634;27;99169;-74
2023/04/21 07:29:29;;;;;;;36.65;30.52;;;;;;;;;;5062626;27;100405;-74
2023/04/21 07:31:57;;;;;;;37.33;31.35;;;;;;;;;;5068206;27;99649;-74
2023/04/21 07:34:23;;;;;;;41.72;32.40;;;;;;;;;;5068765;27;98981;-74
2023/04/21 07:36:54;;;;;;;32.92;26.15;;;;;;;;;;5069439;27;99258;-74
2023/04/21 07:39:21;;;;;;;27.33;23.17;;;;;;;;;;5064101;27;99632;-74
2023/04/21 07:41:48;;;;;;;39.75;31.33;;;;;;;;;;5069767;27;98246;-74
2023/04/21 07:44:14;;;;;;;33.83;29.55;;;;;;;;;;5069185;27;98591;-74
2023/04/21 07:46:40;;;;;;;30.48;24.92;;;;;;;;;;5067192;27;99112;-74
2023/04/21 07:49:07;;;;;;;34.88;31.15;;;;;;;;;;5068509;27;98256;-74
2023/04/21 07:51:33;;;;;;;31.63;25.23;;;;;;;;;;5069169;27;99753;-74
2023/04/21 07:54:00;;;;;;;32.13;28.23;;;;;;;;;;5068538;27;99882;-73
2023/04/21 07:56:26;;;;;;;37.58;30.27;;;;;;;;;;5069188;27;98621;-74
2023/04/21 07:58:53;;;;;;;35.08;30.40;;;;;;;;;;5069474;27;99738;-74
2023/04/21 08:01:19;;;;;;;33.30;29.70;;;;;;;;;;5070513;27;100140;-73
2023/04/21 08:03:46;;;;;;;31.80;28.40;;;;;;;;;;5068770;27;98437;-73
2023/04/21 08:06:12;;;;;;;36.58;29.85;;;;;;;;;;5065442;27;100035;-73
2023/04/21 08:08:39;;;;;;;33.35;27.65;;;;;;;;;;5064362;27;99726;-73
2023/04/21 08:11:06;;;;;;;38.50;28.90;;;;;;;;;;5064981;27;99969;-73
2023/04/21 08:13:35;;;;;;;34.35;27.63;;;;;;;;;;5062677;27;99664;-75
2023/04/21 08:16:02;;;;;;;34.15;29.00;;;;;;;;;;5061863;27;98220;-73
2023/04/21 08:18:28;;;;;;;33.63;27.77;;;;;;;;;;5063350;27;99352;-73
2023/04/21 08:20:56;;;;;;;33.25;28.27;;;;;;;;;;5065101;27;99171;-73
2023/04/21 08:23:23;;;;;;;34.03;28.02;;;;;;;;;;5070564;27;99701;-74
2023/04/21 08:25:49;;;;;;;32.38;26.33;;;;;;;;;;5062205;27;99478;-73
2023/04/21 08:28:16;;;;;;;30.70;27.30;;;;;;;;;;5056792;27;98424;-73
2023/04/21 08:30:42;;;;;;;29.35;22.70;;;;;;;;;;5057914;27;99928;-75
2023/04/21 08:33:12;;;;;;;32.20;27.00;;;;;;;;;;5066442;27;100219;-74
2023/04/21 08:35:40;;;;;;;35.17;27.83;;;;;;;;;;5052615;27;98143;-74
2023/04/21 08:38:20;;;;;;;31.10;27.55;;;;;;;;;;5062041;27;99693;-74
2023/04/21 08:40:48;;;;;;;35.22;29.10;;;;;;;;;;5059900;27;99116;-73
2023/04/21 08:43:14;;;;;;;32.88;26.85;;;;;;;;;;5054867;27;98819;-74
2023/04/21 08:45:42;;;;;;;30.02;26.60;;;;;;;;;;5060429;27;99954;-74
2023/04/21 08:48:12;;;;;;;35.03;26.67;;;;;;;;;;5065304;27;98918;-75
2023/04/21 08:50:43;;;;;;;28.13;24.60;;;;;;;;;;5065894;27;99414;-75
2023/04/21 08:53:09;;;;;;;36.42;27.23;;;;;;;;;;5068113;27;99514;-72
2023/04/21 08:55:36;;;;;;;28.05;23.70;;;;;;;;;;5061445;27;98432;-74
2023/04/21 08:58:03;;;;;;;25.88;22.83;;;;;;;;;;5065755;27;98769;-74
2023/04/21 09:00:29;;;;;;;34.58;28.00;;;;;;;;;;5059796;27;100235;-74
2023/04/21 09:02:57;;;;;;;30.73;26.05;;;;;;;;;;5059598;27;98516;-73
2023/04/21 09:05:31;;;;;;;29.30;24.90;;;;;;;;;;5062304;27;100087;-73
2023/04/21 09:08:07;;;;;;;30.67;25.67;;;;;;;;;;5064776;27;98311;-73
2023/04/21 09:10:45;;;;;;;30.10;25.80;;;;;;;;;;5063370;27;99577;-74
2023/04/21 09:13:11;;;;;;;32.72;27.15;;;;;;;;;;5062552;27;99268;-74
2023/04/21 09:15:38;;;;;;;28.38;24.67;;;;;;;;;;5061962;27;98228;-74
2023/04/21 09:18:09;;;;;;;26.10;23.23;;;;;;;;;;5056621;27;99384;-75
2023/04/21 09:20:35;;;;;;;33.65;26.20;;;;;;;;;;5058432;27;99176;-74
2023/04/21 09:23:05;;;;;;;32.13;26.98;;;;;;;;;;5067150;27;98217;-74
2023/04/21 09:25:32;;;;;;;33.03;25.73;;;;;;;;;;5062095;27;99538;-73
2023/04/21 09:27:59;;;;;;;30.98;26.45;;;;;;;;;;5060726;27;99249;-73
2023/04/21 09:30:26;;;;;;;30.85;26.75;;;;;;;;;;5064822;27;98721;-73
2023/04/21 09:32:55;;;;;;;28.88;25.08;;;;;;;;;;5065886;27;99188;-73
2023/04/21 09:35:21;;;;;;;24.00;21.50;;;;;;;;;;5059614;27;100320;-74
2023/04/21 09:37:48;;;;;;;27.35;23.98;;;;;;;;;;5056608;27;99225;-73
2023/04/21 09:40:16;;;;;;;29.65;26.00;;;;;;;;;;5056440;27;99135;-73
2023/04/21 09:42:43;;;;;;;31.10;25.55;;;;;;;;;;5066663;27;98331;-73
2023/04/21 09:45:10;;;;;;;24.27;21.67;;;;;;;;;;5064618;27;99145;-73
2023/04/21 09:47:41;;;;;;;28.92;25.80;;;;;;;;;;5066217;27;99080;-74
2023/04/21 09:50:10;;;;;;;27.10;23.73;;;;;;;;;;5065675;27;98478;-73
2023/04/21 09:52:42;;;;;;;27.55;23.88;;;;;;;;;;5066144;27;98717;-73
2023/04/21 09:55:11;;;;;;;23.83;21.33;;;;;;;;;;5064620;27;98246;-73
2023/04/21 09:57:40;;;;;;;24.88;20.63;;;;;;;;;;5058817;27;98812;-73
2023/04/21 10:00:10;;;;;;;27.85;23.83;;;;;;;;;;5061365;27;98971;-73
2023/04/21 10:02:41;;;;;;;28.88;23.02;;;;;;;;;;5059096;27;98228;-73
2023/04/21 10:05:09;;;;;;;26.05;23.23;;;;;;;;;;5059087;27;99761;-73
2023/04/21 10:07:36;;;;;;;25.45;21.88;;;;;;;;;;5063567;27;100062;-72
2023/04/21 10:10:05;;;;;;;26.77;23.50;;;;;;;;;;5066152;27;98231;-72
2023/04/21 10:12:32;;;;;;;25.35;20.85;;;;;;;;;;5064336;27;98981;-72
2023/04/21 10:15:02;;;;;;;28.80;24.80;;;;;;;;;;5065205;27;98117;-73
2023/04/21 10:17:28;;;;;;;23.60;21.23;;;;;;;;;;5066286;27;100193;-71
2023/04/21 10:19:56;;;;;;;25.67;21.55;;;;;;;;;;5065526;27;101028;-73
2023/04/21 10:22:30;;;;;;;23.60;21.05;;;;;;;;;;5064852;27;98865;-74
2023/04/21 10:24:59;;;;;;;18.70;16.55;;;;;;;;;;5065157;27;98470;-74
2023/04/21 10:27:43;;;;;;;27.00;19.00;;;;;;;;;;5063150;27;98918;-74
2023/04/21 10:30:19;;;;;;;26.30;23.27;;;;;;;;;;5057335;27;99576;-75
2023/04/21 10:32:47;;;;;;;23.05;20.58;;;;;;;;;;5065124;27;98584;-74
2023/04/21 10:35:16;;;;;;;23.95;20.88;;;;;;;;;;5069887;27;99708;-74
2023/04/21 10:37:48;;;;;;;24.77;20.70;;;;;;;;;;5062234;27;99833;-75
2023/04/21 10:40:28;;;;;;;25.65;22.02;;;;;;;;;;5061432;27;99898;-74
2023/04/21 10:43:09;;;;;;;;;;;;;;;;;;5065681;27;98407;-74
2023/04/21 10:45:37;;;;;;;24.67;20.92;;;;;;;;;;5062045;27;129196;-73
2023/04/21 10:48:12;;;;;;;23.75;18.80;;;;;;;;;;5063633;27;100822;-73
2023/04/21 10:50:38;;;;;;;35.15;22.08;;;;;;;;;;5064850;27;99430;-74
2023/04/21 10:53:10;;;;;;;28.35;21.80;;;;;;;;;;5066906;27;99860;-74
2023/04/21 10:55:37;;;;;;;25.42;21.60;;;;;;;;;;5059953;27;100403;-74
2023/04/21 10:58:06;;;;;;;25.67;21.17;;;;;;;;;;5073272;27;98252;-73
2023/04/21 11:00:32;;;;;;;24.48;21.10;;;;;;;;;;5062841;27;100289;-73
2023/04/21 11:03:03;;;;;;;25.95;20.33;;;;;;;;;;5068651;27;98236;-74
2023/04/21 11:05:34;;;;;;;25.80;21.60;;;;;;;;;;5049517;27;99513;-73
2023/04/21 11:08:29;;;;;;;26.05;23.35;;;;;;;;;;5054295;27;99544;-73
2023/04/21 11:10:55;;;;;;;26.38;20.60;;;;;;;;;;5062413;27;98216;-72
2023/04/21 11:13:23;;;;;;;25.77;21.98;;;;;;;;;;5067992;27;99746;-72
2023/04/21 11:15:58;;;;;;;25.20;21.98;;;;;;;;;;5067515;27;99970;-73
2023/04/21 11:18:51;;;;;;;26.90;22.35;;;;;;;;;;5071181;27;99832;-72
2023/04/21 11:21:20;;;;;;;27.08;18.73;;;;;;;;;;5062886;27;100254;-72
2023/04/21 11:23:48;;;;;;;26.15;21.25;;;;;;;;;;5059730;27;98362;-74
2023/04/21 11:26:14;;;;;;;29.33;23.17;;;;;;;;;;5057861;27;99653;-73
2023/04/21 11:28:41;;;;;;;23.23;20.58;;;;;;;;;;5064111;27;99276;-73
2023/04/21 11:31:08;;;;;;;26.75;22.10;;;;;;;;;;5063741;27;100452;-73
2023/04/21 11:33:38;;;;;;;25.40;21.98;;;;;;;;;;5062641;27;99489;-72
2023/04/21 11:36:06;;;;;;;24.92;21.80;;;;;;;;;;5061838;27;100053;-73
2023/04/21 11:38:36;;;;;;;24.92;21.75;;;;;;;;;;5063830;27;98184;-73
2023/04/21 11:41:02;;;;;;;26.45;22.67;;;;;;;;;;5068529;27;98637;-73
2023/04/21 11:43:29;;;;;;;27.17;21.35;;;;;;;;;;5067676;27;99429;-73
2023/04/21 11:46:16;;;;;;;23.63;15.32;;;;;;;;;;5067369;27;99287;-73
2023/04/21 11:48:44;;;;;;;22.10;19.40;;;;;;;;;;5065063;27;98948;-73
2023/04/21 11:51:14;;;;;;;21.70;18.98;;;;;;;;;;5057747;27;98263;-73
2023/04/21 11:53:40;;;;;;;21.42;18.77;;;;;;;;;;5062043;27;100795;-73
2023/04/21 11:56:07;;;;;;;21.98;18.88;;;;;;;;;;5062772;27;98884;-72
2023/04/21 11:58:34;;;;;;;22.98;19.60;;;;;;;;;;5062730;27;98319;-73
2023/04/21 12:01:06;;;;;;;24.10;19.98;;;;;;;;;;5066798;27;99530;-73
2023/04/21 12:03:32;;;;;;;22.02;19.50;;;;;;;;;;5064096;27;100222;-73
2023/04/21 12:05:59;;;;;;;20.33;18.33;;;;;;;;;;5067929;27;98568;-73
2023/04/21 12:08:30;;;;;;;26.73;19.10;;;;;;;;;;5059565;27;99902;-72
2023/04/21 12:10:58;;;;;;;19.83;17.23;;;;;;;;;;5063839;27;99723;-73
2023/04/21 12:13:27;;;;;;;23.17;18.52;;;;;;;;;;5066478;27;98540;-73
2023/04/21 12:15:54;;;;;;;22.63;17.88;;;;;;;;;;5067670;27;99010;-73
2023/04/21 12:18:20;;;;;;;17.67;15.88;;;;;;;;;;5064647;27;98768;-73
2023/04/21 12:20:48;;;;;;;20.23;16.95;;;;;;;;;;5056664;27;99549;-72
2023/04/21 12:23:14;;;;;;;22.40;17.38;;;;;;;;;;5060380;27;99885;-72
2023/04/21 12:25:41;;;;;;;25.08;17.60;;;;;;;;;;5071208;27;98299;-72
2023/04/21 12:28:08;;;;;;;18.88;14.88;;;;;;;;;;5067229;27;99612;-73
2023/04/21 12:30:34;;;;;;;16.80;13.48;;;;;;;;;;5059446;27;99302;-72
2023/04/21 12:33:07;;;;;;;19.80;17.47;;;;;;;;;;5067746;27;99299;-73
2023/04/21 12:35:34;;;;;;;23.17;17.20;;;;;;;;;;5066893;27;98883;-73
2023/04/21 12:38:00;;;;;;;21.45;16.10;;;;;;;;;;5061894;27;100411;-73
2023/04/21 12:40:27;;;;;;;16.73;15.02;;;;;;;;;;5060063;27;98464;-73
2023/04/21 12:42:53;;;;;;;17.33;15.55;;;;;;;;;;5065337;27;98977;-73
2023/04/21 12:45:20;;;;;;;18.67;15.00;;;;;;;;;;5066339;27;98545;-73
2023/04/21 12:47:46;;;;;;;22.13;16.20;;;;;;;;;;5062410;27;99455;-73
2023/04/21 12:50:13;;;;;;;22.20;18.02;;;;;;;;;;5060310;27;98325;-73
2023/04/21 12:52:40;;;;;;;24.52;20.73;;;;;;;;;;5060958;27;99797;-71
2023/04/21 12:55:06;;;;;;;21.73;17.90;;;;;;;;;;5061144;27;98928;-72
2023/04/21 12:57:32;;;;;;;19.55;14.57;;;;;;;;;;5066579;27;98299;-72
2023/04/21 12:59:59;;;;;;;21.50;18.77;;;;;;;;;;5064554;27;101458;-72
2023/04/21 13:02:26;;;;;;;23.35;19.13;;;;;;;;;;5058913;27;99106;-72
2023/04/21 13:04:53;;;;;;;17.15;14.70;;;;;;;;;;5066386;27;98518;-72
2023/04/21 13:07:21;;;;;;;24.05;17.90;;;;;;;;;;5067852;27;99416;-71
2023/04/21 13:09:47;;;;;;;23.20;20.58;;;;;;;;;;5069066;27;98250;-71
2023/04/21 13:12:14;;;;;;;30.60;20.17;;;;;;;;;;5065055;27;99785;-72
2023/04/21 13:14:40;;;;;;;20.60;16.20;;;;;;;;;;5051732;27;99255;-72
2023/04/21 13:17:07;;;;;;;25.90;19.35;;;;;;;;;;5066761;27;98435;-72
2023/04/21 13:19:33;;;;;;;21.10;18.17;;;;;;;;;;5065519;27;99690;-72
2023/04/21 13:22:00;;;;;;;23.67;20.98;;;;;;;;;;5062904;27;99883;-72
2023/04/21 13:24:26;;;;;;;22.88;19.88;;;;;;;;;;5062255;27;98683;-73
2023/04/21 13:26:53;;;;;;;29.17;21.38;;;;;;;;;;5064449;27;99227;-72
2023/04/21 13:29:20;;;;;;;21.48;19.27;;;;;;;;;;5061515;27;99052;-72
2023/04/21 13:31:46;;;;;;;23.25;19.17;;;;;;;;;;5058558;27;99950;-72
2023/04/21 13:34:12;;;;;;;28.35;19.88;;;;;;;;;;5061787;27;100185;-72
2023/04/21 13:36:39;;;;;;;23.23;20.83;;;;;;;;;;5064166;27;99218;-72
2023/04/21 13:39:10;;;;;;;25.98;21.30;;;;;;;;;;5058232;27;98486;-72
2023/04/21 13:41:36;;;;;;;21.25;18.83;;;;;;;;;;5066425;27;98859;-73
2023/04/21 13:44:03;;;;;;;29.67;19.98;;;;;;;;;;5067000;27;98264;-73
2023/04/21 13:46:29;;;;;;;26.23;21.05;;;;;;;;;;5066349;27;98518;-72
2023/04/21 13:48:56;;;;;;;26.13;20.27;;;;;;;;;;5067251;27;99817;-72
2023/04/21 13:51:23;;;;;;;23.17;20.80;;;;;;;;;;5069963;27;98183;-73
2023/04/21 13:53:49;;;;;;;22.33;20.02;;;;;;;;;;5067432;27;99997;-72
2023/04/21 13:56:16;;;;;;;21.23;18.92;;;;;;;;;;5069771;27;98345;-72
2023/04/21 13:58:43;;;;;;;20.25;18.17;;;;;;;;;;5069020;27;99342;-72
2023/04/21 14:01:09;;;;;;;17.58;15.02;;;;;;;;;;5070195;27;99978;-72
2023/04/21 14:03:36;;;;;;;19.98;17.55;;;;;;;;;;5070668;27;97997;-72
2023/04/21 14:06:03;;;;;;;18.55;15.85;;;;;;;;;;5069906;27;98911;-72
2023/04/21 14:08:30;;;;;;;20.80;17.38;;;;;;;;;;5069840;27;99346;-72
2023/04/21 14:10:57;;;;;;;21.95;15.43;;;;;;;;;;5070716;27;98332;-72
2023/04/21 14:13:27;;;;;;;21.83;15.95;;;;;;;;;;5072557;27;99591;-72
2023/04/21 14:15:58;;;;;;;26.92;17.50;;;;;;;;;;5070937;27;98231;-72